Home   Weather   India   Qadian   Past weeks
Flag for India

Past Weather in Qadian, Punjab, India — Yesterday and Last 2 Weeks

Currently: 59 °F. Fog. (Weather station: Amritsar Airport, India). See more current weather

Past Weather in Qadian — Graph

°F

Qadian Temperature Yesterday

Maximum temperature yesterday: 79 °F (at 2:30 pm)
Minimum temperature yesterday: 52 °F (at 7:00 am)
Average temperature yesterday: 63 °F

High & Low Weather Summary for the Past Weeks

 TemperatureHumidityPressure
High86 °F (Feb 25, 2:30 pm)100% (Feb 15, 8:30 am)30.18 "Hg (Feb 15, 8:30 am)
Low50 °F (Feb 19, 1:00 am)33% (Feb 25, 2:30 pm)29.62 "Hg (Feb 27, 3:00 am)
Average63 °F79%29.94 "Hg
* Reported Feb 15 8:30 am — Mar 2 9:00 am, Qadian. Weather by CustomWeather, © 2021

Note: Actual official high and low records may vary slightly from our data, if they occured in-between our weather recording intervals... More about our weather records

Qadian Weather History for the Previous 24 Hours

Scroll right to see more
 ConditionsComfort  
Time TempWeatherWind HumidityBarometerVisibility
9:00 am
Tue, Mar 2
59 °FFog.3 mph77%30.04 "Hg2 mi
8:30 am55 °FFog.No wind82%30.01 "Hg2 mi
8:00 am54 °FFog.No wind88%30.01 "Hg2 mi
7:30 am50 °FFog.3 mph100%30.01 "Hg2 mi
6:30 am52 °FFog.No wind94%29.98 "Hg2 mi
6:00 am54 °FFog.No wind88%29.98 "Hg2 mi
5:30 am54 °FFog.No wind88%29.98 "Hg2 mi
4:30 am54 °FFog.No wind88%29.98 "Hg2 mi
4:00 am55 °FFog.No wind82%29.98 "Hg2 mi
3:00 am55 °FFog.No wind82%30.01 "Hg2 mi
2:30 am55 °FFog.No wind82%30.01 "Hg2 mi
2:00 am57 °FFog.3 mph77%30.01 "Hg2 mi
1:30 am57 °FFog.No wind77%30.01 "Hg2 mi
1:00 am57 °FFog.No wind77%30.04 "Hg2 mi
12:30 am57 °FFog.No wind77%30.04 "Hg2 mi
12:00 am57 °FFog.No wind77%30.04 "Hg2 mi
11:30 pm
Mon, Mar 1
59 °FFog.No wind77%30.04 "Hg2 mi
11:00 pm59 °FFog.2 mph77%30.04 "Hg2 mi
10:30 pm61 °FFog.No wind72%30.04 "Hg2 mi
10:00 pm59 °FFog.No wind77%30.04 "Hg2 mi
9:30 pm61 °FFog.No wind77%30.04 "Hg2 mi
9:00 pm63 °FHaze.No wind73%30.04 "Hg2 mi
8:30 pm63 °FHaze.2 mph73%30.01 "Hg2 mi
8:00 pm64 °FHaze.5 mph68%30.01 "Hg2 mi
7:30 pm66 °FHaze.5 mph68%30.01 "Hg2 mi
7:00 pm66 °FHaze.6 mph68%29.98 "Hg2 mi
6:00 pm73 °FHaze.5 mph57%29.98 "Hg2 mi
5:30 pm75 °FHaze.6 mph50%29.98 "Hg2 mi
4:30 pm77 °FHaze.8 mph47%29.98 "Hg2 mi
3:30 pm77 °FHaze.9 mph47%29.98 "Hg3 mi
3:00 pm77 °FHaze.9 mph47%29.98 "Hg3 mi
2:30 pm79 °FHaze.8 mph45%29.98 "Hg3 mi
2:00 pm77 °FHaze.9 mph47%29.98 "Hg2 mi
1:30 pm77 °FHaze.8 mph47%30.01 "Hg2 mi
1:00 pm73 °FHaze.7 mph57%30.01 "Hg2 mi
12:30 pm75 °FHaze.7 mph54%30.01 "Hg2 mi
12:00 pm73 °FHaze.9 mph57%30.01 "Hg2 mi
11:30 am72 °FHaze.7 mph61%30.01 "Hg2 mi
10:30 am72 °FHaze.2 mph61%30.01 "Hg1 mi
10:00 am68 °FHaze.2 mph69%30.01 "Hg1 mi
Weather by CustomWeather, © 2021

See weather overview